Time;durP1;ratioP1;P1;durP2;ratioP2;P2;SDS_P1;SDS_P2;PMS_P1;PMS_P2;Temp;Humidity;BMP_temperature;BMP_pressure;BME280_temperature;BME280_humidity;BME280_pressure;Samples;Min_cycle;Max_cycle;Signal;HPM_P1;HPM_P2
2021/12/08 00:01:34;;;;;;;7.28;2.88;;;13.90;63.80;;;;;;4208258;27;20044;-68
2021/12/08 00:03:56;;;;;;;4.28;2.28;;;13.80;63.80;;;;;;4209383;27;20580;-68
2021/12/08 00:06:18;;;;;;;8.15;3.08;;;13.80;65.50;;;;;;4205767;27;20086;-68
2021/12/08 00:08:46;;;;;;;4.68;2.50;;;13.80;66.90;;;;;;4192769;27;20048;-69
2021/12/08 00:13:47;;;;;;;6.55;2.47;;;14.00;67.60;;;;;;4225569;27;20050;-68
2021/12/08 00:16:12;;;;;;;5.57;2.15;;;14.20;67.00;;;;;;4192505;28;20045;-68
2021/12/08 00:18:36;;;;;;;7.65;2.38;;;14.20;67.20;;;;;;4209094;28;20036;-68
2021/12/08 00:21:00;;;;;;;5.35;2.50;;;14.30;67.60;;;;;;4208959;28;20487;-68
2021/12/08 00:23:24;;;;;;;4.25;2.45;;;14.30;67.50;;;;;;4209024;28;20059;-68
2021/12/08 00:25:47;;;;;;;3.25;2.10;;;14.30;67.10;;;;;;4224398;28;20108;-68
2021/12/08 00:28:09;;;;;;;4.78;2.83;;;14.40;66.80;;;;;;4225076;28;20521;-67
2021/12/08 00:30:32;;;;;;;7.43;2.65;;;14.40;66.70;;;;;;4225877;28;20504;-67
2021/12/08 00:32:56;;;;;;;4.07;2.97;;;14.40;66.50;;;;;;4225656;27;20048;-67
2021/12/08 00:35:19;;;;;;;5.63;2.88;;;14.50;66.60;;;;;;4211674;28;20411;-67
2021/12/08 00:37:41;;;;;;;5.10;2.88;;;14.50;66.30;;;;;;4209098;28;20051;-68
2021/12/08 00:40:04;;;;;;;8.40;2.65;;;14.50;66.40;;;;;;4208648;28;20579;-67
2021/12/08 00:42:26;;;;;;;5.20;1.90;;;14.50;66.40;;;;;;4208769;28;20052;-67
2021/12/08 00:44:49;;;;;;;5.18;2.72;;;14.50;66.40;;;;;;4211097;28;20040;-67
2021/12/08 00:47:12;;;;;;;4.30;2.50;;;14.50;66.10;;;;;;4208872;28;20109;-67
2021/12/08 00:49:34;;;;;;;3.08;2.05;;;14.50;65.90;;;;;;4207932;28;20048;-67
2021/12/08 00:51:58;;;;;;;4.68;2.30;;;14.60;66.40;;;;;;4208154;28;20554;-68
2021/12/08 00:54:20;;;;;;;6.38;2.38;;;14.50;66.90;;;;;;4205201;28;20487;-68
2021/12/08 00:56:42;;;;;;;3.13;2.15;;;14.60;66.90;;;;;;4217254;27;20047;-68
2021/12/08 00:59:05;;;;;;;6.25;2.45;;;14.70;66.60;;;;;;4225166;28;20044;-68
2021/12/08 01:01:30;;;;;;;4.47;2.13;;;14.70;66.00;;;;;;4224069;28;20044;-67
2021/12/08 01:03:53;;;;;;;5.07;3.03;;;14.80;66.00;;;;;;4223672;28;20047;-67
2021/12/08 01:06:15;;;;;;;6.22;2.30;;;14.80;65.30;;;;;;4223413;28;20039;-68
2021/12/08 01:08:39;;;;;;;4.63;1.70;;;14.90;65.60;;;;;;4214627;28;20044;-68
2021/12/08 01:11:05;;;;;;;4.55;2.22;;;14.90;65.50;;;;;;4208429;28;20125;-68
2021/12/08 01:13:28;;;;;;;5.30;2.22;;;14.90;65.10;;;;;;4208335;28;20052;-69
2021/12/08 01:15:54;;;;;;;4.28;1.75;;;14.90;65.60;;;;;;4208297;28;20062;-68
2021/12/08 01:18:18;;;;;;;4.50;2.15;;;14.90;66.40;;;;;;4208046;28;20423;-69
2021/12/08 01:20:41;;;;;;;5.20;2.10;;;14.90;65.60;;;;;;4217014;28;20048;-68
2021/12/08 01:23:05;;;;;;;6.10;2.25;;;14.90;64.70;;;;;;4224710;28;20638;-69
2021/12/08 01:25:29;;;;;;;6.78;2.25;;;14.90;65.10;;;;;;4224036;28;20131;-69
2021/12/08 01:27:51;;;;;;;2.95;1.90;;;14.90;64.90;;;;;;4225016;28;20051;-68
2021/12/08 01:30:13;;;;;;;5.15;1.95;;;14.90;64.10;;;;;;4225061;28;20452;-68
2021/12/08 01:32:36;;;;;;;4.28;2.00;;;14.90;64.20;;;;;;4217703;28;20072;-69
2021/12/08 01:34:58;;;;;;;3.50;2.13;;;14.90;64.40;;;;;;4208445;28;20475;-68
2021/12/08 01:37:21;;;;;;;4.25;1.80;;;14.90;65.10;;;;;;4208299;28;20059;-69
2021/12/08 01:39:43;;;;;;;2.70;1.90;;;14.90;64.70;;;;;;4208418;28;20051;-69
2021/12/08 01:42:15;;;;;;;2.30;1.60;;;15.00;64.80;;;;;;4208160;28;20116;-68
2021/12/08 01:47:16;;;;;;;4.07;2.08;;;15.00;65.50;;;;;;4211432;28;20063;-68
2021/12/08 01:49:38;;;;;;;4.20;2.00;;;15.00;64.40;;;;;;4211341;28;20140;-68
2021/12/08 01:52:00;;;;;;;4.70;1.35;;;15.00;64.50;;;;;;4211634;28;20495;-68
2021/12/08 01:54:22;;;;;;;3.72;1.88;;;15.00;65.50;;;;;;4211323;28;20040;-68
2021/12/08 01:56:45;;;;;;;4.05;2.03;;;14.90;64.00;;;;;;4215111;28;20058;-68
2021/12/08 01:59:10;;;;;;;4.07;1.58;;;14.90;63.90;;;;;;4227855;27;20055;-68
2021/12/08 02:01:35;;;;;;;5.68;1.70;;;14.90;64.20;;;;;;4228456;27;20130;-68
2021/12/08 02:04:03;;;;;;;4.32;1.45;;;14.90;64.50;;;;;;4225159;27;20491;-69
2021/12/08 02:06:26;;;;;;;3.25;1.73;;;14.90;64.90;;;;;;4210922;28;20032;-69
2021/12/08 02:08:51;;;;;;;5.22;1.45;;;14.90;65.40;;;;;;4214152;28;20063;-68
2021/12/08 02:11:13;;;;;;;3.95;1.88;;;14.90;66.10;;;;;;4227584;27;20490;-68
2021/12/08 02:13:39;;;;;;;3.05;1.95;;;14.90;64.40;;;;;;4228048;27;20139;-68
2021/12/08 02:16:03;;;;;;;2.40;1.58;;;15.00;65.40;;;;;;4227730;27;20530;-68
2021/12/08 02:18:25;;;;;;;4.32;1.77;;;15.00;64.90;;;;;;4227786;27;20494;-68
2021/12/08 02:20:49;;;;;;;3.53;2.03;;;15.00;65.30;;;;;;4211456;28;20067;-68
2021/12/08 02:23:13;;;;;;;3.22;1.48;;;15.00;65.50;;;;;;4227690;27;20054;-68
2021/12/08 02:25:35;;;;;;;6.68;1.50;;;15.00;65.30;;;;;;4227547;27;20138;-68
2021/12/08 02:28:00;;;;;;;4.05;1.63;;;15.10;65.00;;;;;;4226990;27;20044;-68
2021/12/08 02:30:29;;;;;;;2.50;1.40;;;15.20;64.90;;;;;;4227154;27;20047;-68
2021/12/08 02:48:54;;;;;;;2.78;1.75;;;15.10;65.40;;;;;;4212842;28;20395;-69
2021/12/08 02:51:16;;;;;;;5.57;2.13;;;15.10;65.40;;;;;;4227054;27;20145;-68
2021/12/08 02:53:39;;;;;;;1.92;1.60;;;15.10;65.30;;;;;;4227355;27;20078;-68
2021/12/08 02:56:01;;;;;;;4.20;1.67;;;15.10;65.10;;;;;;4224109;28;20495;-68
2021/12/08 02:58:24;;;;;;;2.80;1.50;;;15.10;65.30;;;;;;4226932;27;20055;-68
2021/12/08 03:00:50;;;;;;;4.15;1.45;;;15.10;65.30;;;;;;4227119;27;20039;-68
2021/12/08 03:03:12;;;;;;;4.50;2.00;;;15.00;65.50;;;;;;4210429;28;20048;-68
2021/12/08 03:05:35;;;;;;;3.67;1.67;;;15.00;65.50;;;;;;4208996;28;20449;-68
2021/12/08 03:07:58;;;;;;;2.47;1.60;;;15.00;65.50;;;;;;4209289;28;20135;-68
2021/12/08 03:10:25;;;;;;;2.35;1.45;;;15.00;65.60;;;;;;4209954;28;20048;-68
2021/12/08 03:12:48;;;;;;;5.95;1.90;;;15.00;65.60;;;;;;4210036;28;20058;-69
2021/12/08 03:15:12;;;;;;;1.50;1.40;;;15.00;65.70;;;;;;4209667;28;20059;-67
2021/12/08 03:17:35;;;;;;;3.35;1.80;;;15.00;65.80;;;;;;4210309;28;20051;-68
2021/12/08 03:19:57;;;;;;;3.53;1.40;;;14.90;66.00;;;;;;4210128;28;20056;-68
2021/12/08 03:22:19;;;;;;;5.97;2.00;;;15.00;66.20;;;;;;4210536;28;20074;-68
2021/12/08 03:24:44;;;;;;;2.97;1.83;;;15.10;66.80;;;;;;4208542;28;20457;-68
2021/12/08 03:27:11;;;;;;;2.97;2.00;;;15.20;65.90;;;;;;4209730;28;20058;-68
2021/12/08 03:29:42;;;;;;;3.53;1.75;;;15.30;65.30;;;;;;4209726;28;20070;-67
2021/12/08 03:32:08;;;;;;;1.60;1.50;;;15.40;65.10;;;;;;4209519;28;20475;-68
2021/12/08 03:34:31;;;;;;;3.80;1.73;;;15.40;64.90;;;;;;4209481;28;20044;-67
2021/12/08 03:36:53;;;;;;;2.05;1.30;;;15.40;64.80;;;;;;4209792;28;20040;-68
2021/12/08 03:39:15;;;;;;;2.75;1.77;;;15.40;65.50;;;;;;4209566;28;20044;-68
2021/12/08 03:41:37;;;;;;;2.00;1.80;;;15.40;64.70;;;;;;4209606;28;20139;-68
2021/12/08 03:44:01;;;;;;;2.67;1.48;;;15.50;64.80;;;;;;4209460;28;20067;-66
2021/12/08 03:46:26;;;;;;;4.38;1.70;;;15.50;64.50;;;;;;4208899;28;20130;-67
2021/12/08 03:48:50;;;;;;;1.67;1.58;;;15.50;64.50;;;;;;4209782;28;20411;-67
2021/12/08 03:51:12;;;;;;;3.13;1.50;;;15.50;64.50;;;;;;4209091;28;20067;-69
2021/12/08 03:53:34;;;;;;;2.40;2.00;;;15.50;64.50;;;;;;4209047;28;20476;-68
2021/12/08 03:55:56;;;;;;;3.63;1.60;;;15.50;64.70;;;;;;4209295;28;20055;-67
2021/12/08 03:58:19;;;;;;;4.13;1.77;;;15.40;64.70;;;;;;4207699;28;20075;-67
2021/12/08 04:00:46;;;;;;;3.05;1.63;;;15.30;64.80;;;;;;4209067;28;20052;-68
2021/12/08 04:03:08;;;;;;;3.58;1.95;;;15.30;65.20;;;;;;4208842;28;20052;-67
2021/12/08 04:05:41;;;;;;;1.42;1.30;;;15.30;65.40;;;;;;4209082;28;20044;-67
2021/12/08 04:08:14;;;;;;;2.60;1.70;;;15.40;65.30;;;;;;4208568;28;20513;-67
2021/12/08 04:10:38;;;;;;;1.75;1.33;;;15.50;65.00;;;;;;4208870;28;20056;-67
2021/12/08 04:13:01;;;;;;;1.88;1.77;;;15.50;64.80;;;;;;4208965;28;20066;-67
2021/12/08 04:15:25;;;;;;;3.58;1.60;;;15.50;64.80;;;;;;4208855;28;20060;-67
2021/12/08 04:17:51;;;;;;;1.85;1.60;;;15.50;64.80;;;;;;4208972;28;20051;-67
2021/12/08 04:20:18;;;;;;;4.88;1.73;;;15.50;64.80;;;;;;4209134;28;20501;-67
2021/12/08 04:22:43;;;;;;;4.13;1.85;;;15.50;64.70;;;;;;4208555;28;20120;-67
2021/12/08 04:25:10;;;;;;;2.05;1.85;;;15.50;64.70;;;;;;4208956;28;20066;-67
2021/12/08 04:27:35;;;;;;;2.95;1.90;;;15.40;64.70;;;;;;4208290;28;20074;-68
2021/12/08 04:29:58;;;;;;;4.07;2.28;;;15.40;65.30;;;;;;4208379;28;20052;-67
2021/12/08 04:32:25;;;;;;;3.50;2.50;;;15.40;65.60;;;;;;4209023;28;20555;-67
2021/12/08 04:34:51;;;;;;;3.17;2.08;;;15.40;65.40;;;;;;4208580;28;20044;-67
2021/12/08 04:37:21;;;;;;;2.60;2.05;;;15.50;65.30;;;;;;4208144;28;20523;-66
2021/12/08 04:39:52;;;;;;;4.07;1.73;;;15.50;65.10;;;;;;4208477;28;20139;-67
2021/12/08 04:42:19;;;;;;;;;;;15.50;65.00;;;;;;4208967;28;20140;-67
2021/12/08 04:44:47;;;;;;;2.25;1.92;;;15.60;65.90;;;;;;4206380;28;19955;-67
2021/12/08 04:50:20;;;;;;;3.50;2.20;;;15.80;64.50;;;;;;4207481;27;20146;-68
2021/12/08 04:53:04;;;;;;;6.65;2.72;;;15.80;64.30;;;;;;4207737;28;20044;-68
2021/12/08 05:01:17;;;;;;;2.83;2.00;;;16.10;63.50;;;;;;4192995;27;20094;-67
2021/12/08 05:04:02;;;;;;;3.42;2.55;;;16.10;63.40;;;;;;4191522;28;20123;-67
2021/12/08 05:06:38;;;;;;;2.45;2.20;;;16.00;63.30;;;;;;4191788;28;20094;-66
2021/12/08 05:09:00;;;;;;;2.80;2.30;;;16.00;63.50;;;;;;4198445;27;20048;-66
2021/12/08 05:11:25;;;;;;;2.50;2.28;;;15.90;63.70;;;;;;4208145;27;20147;-66
2021/12/08 05:13:52;;;;;;;2.50;2.30;;;15.80;64.00;;;;;;4208609;27;20105;-67
2021/12/08 05:16:14;;;;;;;2.83;2.28;;;15.80;64.20;;;;;;4208735;27;20048;-67
2021/12/08 05:18:44;;;;;;;3.60;2.63;;;15.80;64.30;;;;;;4191241;28;20033;-67
2021/12/08 05:21:11;;;;;;;4.18;2.33;;;15.70;64.30;;;;;;4191525;28;20040;-67
2021/12/08 05:23:39;;;;;;;3.67;2.22;;;15.60;64.30;;;;;;4191415;28;20044;-66
2021/12/08 05:26:04;;;;;;;2.78;2.42;;;15.60;64.80;;;;;;4204220;27;20048;-67
2021/12/08 05:28:30;;;;;;;3.30;2.92;;;15.60;65.00;;;;;;4207964;27;20060;-67
2021/12/08 05:30:55;;;;;;;3.83;2.47;;;15.50;65.10;;;;;;4208332;27;20066;-67
2021/12/08 05:33:18;;;;;;;3.78;2.92;;;15.60;65.30;;;;;;4206456;27;20071;-67
2021/12/08 05:35:41;;;;;;;3.20;2.90;;;15.50;65.40;;;;;;4198142;27;20070;-66
2021/12/08 05:38:03;;;;;;;2.90;2.50;;;15.50;65.40;;;;;;4191548;28;20411;-67
2021/12/08 05:40:32;;;;;;;3.08;2.78;;;15.50;65.50;;;;;;4192928;28;20040;-66
2021/12/08 05:42:55;;;;;;;4.03;3.08;;;15.50;65.50;;;;;;4224656;28;20126;-67
2021/12/08 05:45:20;;;;;;;2.95;2.40;;;15.50;65.70;;;;;;4216181;28;20142;-67
2021/12/08 05:47:43;;;;;;;3.08;2.75;;;15.60;65.80;;;;;;4208050;28;20069;-67
2021/12/08 05:50:07;;;;;;;5.68;2.80;;;15.60;65.50;;;;;;4208153;28;20487;-67
2021/12/08 05:52:29;;;;;;;4.00;2.58;;;15.60;65.40;;;;;;4208128;28;20048;-67
2021/12/08 05:54:53;;;;;;;4.05;2.50;;;15.70;65.50;;;;;;4212956;28;20407;-67
2021/12/08 05:57:20;;;;;;;3.35;2.75;;;15.60;65.40;;;;;;4220581;28;20072;-67
2021/12/08 05:59:43;;;;;;;3.22;2.83;;;15.70;65.20;;;;;;4207935;28;20063;-67
2021/12/08 06:02:09;;;;;;;3.13;2.83;;;15.70;65.50;;;;;;4208031;28;20126;-67
2021/12/08 06:04:32;;;;;;;3.70;2.97;;;15.70;66.10;;;;;;4210638;28;20376;-67
2021/12/08 06:06:56;;;;;;;4.10;2.85;;;15.70;65.30;;;;;;4224753;28;20067;-67
2021/12/08 06:09:22;;;;;;;3.90;3.22;;;15.70;65.30;;;;;;4224761;28;20502;-67
2021/12/08 06:11:46;;;;;;;3.72;2.55;;;15.70;65.20;;;;;;4224616;28;20571;-66
2021/12/08 06:14:10;;;;;;;3.13;2.92;;;15.70;65.30;;;;;;4216614;28;20497;-66
2021/12/08 06:16:34;;;;;;;3.42;2.92;;;15.70;65.50;;;;;;4224997;28;20555;-66
2021/12/08 06:18:56;;;;;;;3.40;2.60;;;15.80;65.50;;;;;;4224846;28;20487;-67
2021/12/08 06:21:21;;;;;;;5.63;2.92;;;15.80;65.30;;;;;;4224770;27;20044;-67
2021/12/08 06:23:44;;;;;;;4.30;2.60;;;15.90;65.00;;;;;;4218494;28;20441;-67
2021/12/08 06:26:08;;;;;;;2.92;2.72;;;16.00;64.70;;;;;;4223142;28;20040;-68
2021/12/08 06:28:30;;;;;;;4.43;2.63;;;16.00;64.60;;;;;;4223968;28;20036;-69
2021/12/08 06:30:56;;;;;;;5.97;2.80;;;16.00;64.50;;;;;;4217895;27;20157;-67
2021/12/08 06:33:20;;;;;;;3.33;2.95;;;16.00;64.70;;;;;;4220832;28;20419;-69
2021/12/08 06:35:46;;;;;;;3.50;2.85;;;16.10;64.50;;;;;;4227539;27;20487;-68
2021/12/08 06:38:09;;;;;;;4.88;3.08;;;16.20;64.30;;;;;;4227612;28;20470;-68
2021/12/08 06:40:35;;;;;;;3.15;2.90;;;16.20;64.10;;;;;;4227301;28;20100;-68
2021/12/08 06:43:00;;;;;;;3.35;2.92;;;16.20;63.70;;;;;;4219181;28;20044;-67
2021/12/08 06:45:29;;;;;;;7.85;3.20;;;16.20;63.80;;;;;;4210706;28;20059;-68
2021/12/08 06:47:54;;;;;;;4.68;2.58;;;16.20;63.90;;;;;;4210347;28;20047;-68
2021/12/08 06:50:20;;;;;;;3.05;2.75;;;16.30;64.00;;;;;;4218981;28;20050;-68
2021/12/08 06:52:45;;;;;;;3.50;2.65;;;16.30;63.80;;;;;;4226466;27;20546;-68
2021/12/08 06:55:13;;;;;;;3.25;2.90;;;16.40;63.60;;;;;;4220938;28;20048;-67
2021/12/08 06:57:38;;;;;;;4.28;2.92;;;16.40;63.40;;;;;;4210038;28;20056;-67
2021/12/08 07:00:14;;;;;;;2.80;2.42;;;16.40;63.50;;;;;;4210628;28;20048;-66
2021/12/08 07:02:53;;;;;;;4.20;2.50;;;16.40;63.20;;;;;;4208814;28;20048;-67
2021/12/08 07:05:29;;;;;;;3.08;2.65;;;16.40;63.20;;;;;;4210204;27;20503;-66
2021/12/08 07:07:54;;;;;;;4.00;3.00;;;16.50;63.20;;;;;;4220079;27;20475;-67
2021/12/08 07:10:21;;;;;;;4.03;2.95;;;16.40;63.30;;;;;;4227333;27;20049;-67
2021/12/08 07:12:47;;;;;;;4.78;2.65;;;16.40;63.40;;;;;;4224760;28;20051;-69
2021/12/08 07:15:13;;;;;;;3.92;2.83;;;16.30;64.00;;;;;;4225498;27;20051;-67
2021/12/08 07:17:39;;;;;;;4.30;3.08;;;16.30;64.70;;;;;;4214738;28;20406;-67
2021/12/08 07:20:14;;;;;;;5.13;2.80;;;16.20;64.80;;;;;;4222675;28;20062;-67
2021/12/08 07:22:38;;;;;;;3.08;2.78;;;16.20;64.80;;;;;;4226214;27;20478;-67
2021/12/08 07:25:03;;;;;;;5.35;3.38;;;16.20;64.80;;;;;;4225395;27;20052;-67
2021/12/08 07:27:29;;;;;;;2.65;2.50;;;16.20;65.80;;;;;;4222715;27;20503;-67
2021/12/08 07:29:53;;;;;;;5.65;3.35;;;16.30;64.80;;;;;;4208458;28;20537;-67
2021/12/08 07:32:19;;;;;;;4.07;2.75;;;16.30;64.60;;;;;;4216126;27;20494;-67
2021/12/08 07:34:42;;;;;;;3.10;2.90;;;16.30;64.30;;;;;;4209508;28;20067;-67
2021/12/08 07:37:11;;;;;;;3.30;2.88;;;16.30;64.30;;;;;;4209649;28;20047;-67
2021/12/08 07:39:43;;;;;;;2.88;2.65;;;16.30;64.40;;;;;;4208555;28;20047;-67
2021/12/08 07:42:09;;;;;;;3.33;2.42;;;16.30;64.50;;;;;;4220301;28;20532;-67
2021/12/08 07:44:34;;;;;;;3.50;3.00;;;16.20;64.70;;;;;;4209403;28;20051;-67
2021/12/08 07:46:59;;;;;;;3.15;2.40;;;16.20;64.90;;;;;;4209311;28;20442;-68
2021/12/08 07:49:25;;;;;;;5.13;2.50;;;16.20;65.20;;;;;;4207290;28;20085;-67
2021/12/08 07:51:51;;;;;;;4.22;2.25;;;16.20;65.40;;;;;;4209410;28;20131;-67
2021/12/08 07:54:14;;;;;;;3.00;2.67;;;16.10;65.50;;;;;;4208872;28;20381;-67
2021/12/08 07:56:39;;;;;;;9.52;2.88;;;16.10;65.40;;;;;;4209329;28;20097;-67
2021/12/08 07:59:06;;;;;;;3.88;2.47;;;16.20;65.30;;;;;;4217804;28;20052;-67
2021/12/08 08:01:31;;;;;;;6.60;2.58;;;16.20;65.20;;;;;;4225985;27;20096;-67
2021/12/08 08:03:55;;;;;;;5.50;2.80;;;16.10;65.20;;;;;;4209774;28;20048;-68
2021/12/08 08:06:20;;;;;;;4.22;2.45;;;16.10;65.20;;;;;;4206935;28;20056;-60
2021/12/08 08:08:42;;;;;;;3.33;2.45;;;16.10;65.40;;;;;;4212313;28;20151;-60
2021/12/08 08:11:10;;;;;;;4.68;2.35;;;16.10;65.50;;;;;;4213517;28;20072;-60
2021/12/08 08:13:33;;;;;;;5.40;2.50;;;16.10;66.10;;;;;;4207502;28;20148;-59
2021/12/08 08:16:04;;;;;;;5.00;2.47;;;16.10;65.80;;;;;;4217904;28;20035;-60
2021/12/08 08:18:29;;;;;;;5.10;2.75;;;16.10;65.70;;;;;;4222739;27;20055;-60
2021/12/08 08:20:54;;;;;;;4.43;2.17;;;16.20;65.80;;;;;;4218184;27;20051;-60
2021/12/08 08:23:18;;;;;;;4.05;2.30;;;16.10;65.70;;;;;;4211614;27;20100;-60
2021/12/08 08:25:43;;;;;;;4.22;2.05;;;16.10;65.80;;;;;;4219694;27;20380;-60
2021/12/08 08:28:06;;;;;;;2.35;1.70;;;16.10;65.80;;;;;;4219388;28;20086;-60
2021/12/08 08:30:34;;;;;;;3.70;1.85;;;16.00;66.10;;;;;;4211941;27;20060;-60
2021/12/08 08:32:59;;;;;;;4.93;2.10;;;15.90;66.20;;;;;;4207330;27;20105;-61
2021/12/08 08:35:24;;;;;;;1.92;1.65;;;15.90;66.50;;;;;;4207378;28;20048;-60
2021/12/08 08:37:48;;;;;;;3.25;2.00;;;15.80;66.50;;;;;;4222095;28;20047;-60
2021/12/08 08:40:16;;;;;;;3.75;1.45;;;15.80;66.90;;;;;;4223656;27;20051;-60
2021/12/08 08:42:42;;;;;;;2.17;1.58;;;15.70;68.00;;;;;;4209981;28;20059;-59
2021/12/08 08:45:11;;;;;;;8.45;1.73;;;15.60;67.30;;;;;;4212289;27;20056;-60
2021/12/08 08:47:39;;;;;;;5.30;1.88;;;15.60;67.60;;;;;;4208030;28;20775;-60
2021/12/08 08:50:03;;;;;;;2.20;1.33;;;15.50;67.80;;;;;;4206755;28;20127;-60
2021/12/08 08:52:30;;;;;;;4.50;1.40;;;15.40;68.10;;;;;;4214300;27;20060;-60
2021/12/08 08:54:54;;;;;;;3.53;1.60;;;15.30;68.10;;;;;;4207822;27;20534;-60
2021/12/08 08:57:22;;;;;;;4.72;1.40;;;15.30;68.50;;;;;;4207416;28;20072;-59
2021/12/08 08:59:47;;;;;;;3.22;1.83;;;15.20;68.60;;;;;;4207454;28;20414;-60
2021/12/08 09:02:10;;;;;;;4.70;1.80;;;15.20;69.80;;;;;;4217134;27;20459;-61
2021/12/08 09:04:36;;;;;;;5.10;1.48;;;15.10;69.00;;;;;;4207777;28;20048;-60
2021/12/08 09:07:04;;;;;;;3.13;1.52;;;15.10;69.10;;;;;;4222836;27;20047;-60
2021/12/08 09:09:29;;;;;;;4.20;1.58;;;15.00;69.30;;;;;;4210711;28;20395;-59
2021/12/08 09:11:55;;;;;;;3.30;1.23;;;15.00;69.50;;;;;;4209163;28;20821;-60
2021/12/08 09:14:24;;;;;;;7.72;2.45;;;15.00;69.60;;;;;;4206264;28;20474;-60
2021/12/08 09:16:53;;;;;;;2.58;1.42;;;15.00;69.80;;;;;;4214431;28;20055;-60
2021/12/08 09:19:18;;;;;;;5.05;1.67;;;14.90;70.00;;;;;;4207223;28;20043;-60
2021/12/08 09:21:47;;;;;;;5.35;1.60;;;14.90;70.00;;;;;;4214333;28;20044;-60
2021/12/08 09:24:26;;;;;;;7.88;1.52;;;14.80;70.10;;;;;;4206678;28;20056;-60
2021/12/08 09:26:53;;;;;;;7.45;1.30;;;14.80;70.40;;;;;;4206012;28;20512;-60
2021/12/08 09:29:19;;;;;;;7.05;1.77;;;14.80;70.60;;;;;;4206892;28;20040;-60
2021/12/08 09:31:47;;;;;;;2.97;1.42;;;14.70;70.60;;;;;;4204906;28;20514;-60
2021/12/08 09:34:16;;;;;;;2.80;1.15;;;14.70;70.80;;;;;;4209468;28;20052;-60
2021/12/08 09:36:53;;;;;;;4.90;1.42;;;14.70;71.10;;;;;;4211612;28;20054;-60
2021/12/08 09:39:21;;;;;;;9.10;2.08;;;14.80;71.00;;;;;;4222259;28;20126;-60
2021/12/08 09:41:49;;;;;;;6.72;1.88;;;14.80;70.80;;;;;;4206236;28;20052;-60
2021/12/08 09:44:14;;;;;;;5.60;1.30;;;14.80;70.70;;;;;;4207965;28;20051;-59
2021/12/08 09:46:40;;;;;;;11.25;1.80;;;14.90;70.60;;;;;;4206098;28;20409;-59
2021/12/08 09:49:04;;;;;;;6.70;1.88;;;14.90;70.40;;;;;;4206239;28;20135;-59
2021/12/08 09:51:28;;;;;;;7.03;1.45;;;14.90;70.50;;;;;;4206024;28;20055;-59
2021/12/08 09:53:53;;;;;;;8.25;1.77;;;14.90;70.40;;;;;;4206644;28;20547;-60
2021/12/08 09:56:16;;;;;;;9.32;1.60;;;14.90;70.30;;;;;;4219851;28;20389;-59
2021/12/08 09:58:39;;;;;;;11.23;1.95;;;14.80;70.30;;;;;;4221048;28;20509;-59
2021/12/08 10:01:02;;;;;;;6.38;1.73;;;14.80;70.40;;;;;;4222163;28;20052;-60
2021/12/08 10:03:25;;;;;;;6.85;1.88;;;14.80;70.20;;;;;;4207764;28;20498;-60
2021/12/08 10:05:47;;;;;;;2.97;1.30;;;14.80;70.20;;;;;;4207470;28;20052;-60
2021/12/08 10:08:10;;;;;;;6.53;1.60;;;14.80;70.40;;;;;;4209280;28;20051;-59
2021/12/08 10:10:35;;;;;;;5.30;1.35;;;14.80;70.40;;;;;;4209202;28;20048;-60
2021/12/08 10:12:58;;;;;;;8.07;1.67;;;14.70;70.30;;;;;;4215307;28;20052;-59
2021/12/08 10:15:22;;;;;;;6.78;2.08;;;14.70;70.40;;;;;;4215805;27;20063;-59
2021/12/08 10:17:44;;;;;;;7.35;2.00;;;14.70;70.60;;;;;;4225312;27;20508;-59
2021/12/08 10:20:16;;;;;;;7.70;1.92;;;14.60;70.60;;;;;;4224867;27;20441;-59
2021/12/08 10:22:39;;;;;;;7.50;2.28;;;14.60;70.60;;;;;;4224383;27;20453;-60
2021/12/08 10:25:09;;;;;;;6.05;2.10;;;14.60;70.80;;;;;;4224407;27;20900;-60
2021/12/08 10:27:34;;;;;;;3.90;1.33;;;14.60;70.90;;;;;;4210032;27;20148;-60
2021/12/08 10:30:19;;;;;;;5.68;1.77;;;14.60;70.80;;;;;;4214521;27;20052;-59
2021/12/08 10:32:40;;;;;;;9.38;2.20;;;14.70;70.50;;;;;;4214721;28;20051;-60
2021/12/08 10:35:07;;;;;;;6.38;1.40;;;14.70;70.60;;;;;;4215831;28;20490;-61
2021/12/08 10:37:29;;;;;;;4.65;1.30;;;14.70;70.30;;;;;;4209214;28;20040;-60
2021/12/08 10:39:54;;;;;;;4.63;1.40;;;14.80;70.40;;;;;;4212108;28;20132;-59
2021/12/08 10:42:22;;;;;;;11.13;2.00;;;14.70;70.10;;;;;;4211968;28;20036;-61
2021/12/08 10:44:55;;;;;;;7.80;2.10;;;14.70;69.90;;;;;;4210360;28;20048;-61
2021/12/08 10:47:22;;;;;;;5.70;1.52;;;14.80;69.80;;;;;;4218290;27;20059;-61
2021/12/08 10:55:14;;;;;;;7.78;2.20;;;14.80;69.40;;;;;;4212590;28;20555;-61
2021/12/08 10:57:38;;;;;;;8.57;2.08;;;14.80;69.10;;;;;;4213641;27;20052;-61
2021/12/08 11:00:08;;;;;;;7.65;1.75;;;14.90;68.90;;;;;;4208902;28;20044;-64
2021/12/08 11:02:49;;;;;;;6.85;2.28;;;14.90;68.70;;;;;;4223978;27;20142;-61
2021/12/08 11:05:41;;;;;;;5.63;1.52;;;14.90;68.50;;;;;;4208188;28;20056;-62
2021/12/08 11:08:06;;;;;;;5.47;1.50;;;14.90;68.40;;;;;;4220740;27;20091;-61
2021/12/08 11:10:28;;;;;;;6.75;1.73;;;14.90;68.80;;;;;;4224850;28;20124;-61
2021/12/08 11:12:50;;;;;;;8.32;2.15;;;14.90;68.90;;;;;;4208482;28;20113;-61
2021/12/08 11:15:21;;;;;;;6.57;1.50;;;14.90;68.90;;;;;;4211447;28;20043;-60
2021/12/08 11:17:43;;;;;;;6.95;2.00;;;14.90;68.70;;;;;;4218940;28;20131;-61
2021/12/08 11:20:17;;;;;;;6.50;2.30;;;14.80;68.80;;;;;;4220688;28;20353;-60
2021/12/08 11:22:40;;;;;;;5.65;1.77;;;14.80;68.60;;;;;;4208292;28;20048;-60
2021/12/08 11:25:03;;;;;;;4.28;1.60;;;14.80;69.20;;;;;;4213364;28;20035;-61
2021/12/08 11:27:30;;;;;;;3.58;1.77;;;14.70;69.30;;;;;;4218545;27;20479;-61
2021/12/08 11:29:52;;;;;;;6.97;1.95;;;14.70;68.80;;;;;;4224496;27;20056;-61
2021/12/08 11:32:22;;;;;;;5.72;1.80;;;14.70;68.90;;;;;;4211273;28;20164;-62
2021/12/08 11:34:48;;;;;;;5.70;1.90;;;14.70;68.90;;;;;;4208537;27;20131;-61
2021/12/08 11:37:15;;;;;;;7.30;2.20;;;14.60;69.20;;;;;;4208506;28;20047;-61
2021/12/08 11:39:40;;;;;;;7.63;1.70;;;14.60;69.40;;;;;;4209108;27;20056;-61
2021/12/08 11:42:06;;;;;;;5.63;1.70;;;14.60;69.60;;;;;;4217672;27;20059;-61
2021/12/08 11:44:31;;;;;;;3.22;1.80;;;14.60;69.70;;;;;;4209276;27;21794;-61
2021/12/08 11:46:56;;;;;;;6.72;1.75;;;14.50;69.60;;;;;;4211298;28;20052;-60
2021/12/08 11:49:21;;;;;;;5.57;1.70;;;14.50;69.70;;;;;;4207787;28;20064;-61
2021/12/08 11:52:09;;;;;;;4.63;1.95;;;14.50;70.00;;;;;;4224205;28;20043;-61
2021/12/08 11:54:36;;;;;;;5.22;2.00;;;14.50;69.70;;;;;;4207923;28;20047;-60
2021/12/08 11:57:11;;;;;;;4.18;1.67;;;14.40;70.20;;;;;;4223523;28;20666;-64
2021/12/08 11:59:33;;;;;;;4.78;1.40;;;14.40;70.10;;;;;;4218215;27;20144;-61
2021/12/08 12:01:55;;;;;;;7.50;2.00;;;14.40;70.10;;;;;;4218677;27;20126;-61
2021/12/08 12:04:17;;;;;;;5.70;1.60;;;14.30;70.00;;;;;;4207974;28;20052;-61
2021/12/08 12:06:41;;;;;;;8.68;2.22;;;14.30;69.90;;;;;;4208037;28;20131;-61
2021/12/08 12:09:06;;;;;;;6.03;1.70;;;14.30;69.50;;;;;;4207425;28;20621;-60
2021/12/08 12:11:46;;;;;;;5.32;2.03;;;14.30;70.00;;;;;;4207147;28;20092;-61
2021/12/08 12:14:08;;;;;;;5.47;1.92;;;14.20;70.00;;;;;;4207661;28;20543;-60
2021/12/08 12:16:30;;;;;;;5.30;1.90;;;14.20;70.30;;;;;;4210305;27;21025;-60
2021/12/08 12:18:56;;;;;;;5.05;1.75;;;14.20;70.10;;;;;;4218537;28;20047;-60
2021/12/08 12:21:28;;;;;;;7.47;1.92;;;14.10;71.10;;;;;;4207179;28;20989;-61
2021/12/08 12:24:05;;;;;;;5.70;1.67;;;14.10;70.20;;;;;;4206931;28;20044;-60
2021/12/08 12:26:38;;;;;;;5.63;1.90;;;14.10;69.90;;;;;;4206909;28;20044;-60
2021/12/08 12:29:12;;;;;;;7.40;2.40;;;14.00;70.80;;;;;;4206282;28;20052;-60
2021/12/08 12:31:50;;;;;;;4.57;1.75;;;14.00;71.00;;;;;;4207091;28;20048;-60
2021/12/08 12:34:26;;;;;;;4.43;1.77;;;13.90;70.60;;;;;;4222280;28;20068;-60
2021/12/08 12:36:48;;;;;;;9.02;1.95;;;13.90;70.40;;;;;;4223205;27;20047;-60
2021/12/08 12:39:14;;;;;;;4.82;1.98;;;13.90;71.50;;;;;;4222946;27;20066;-61
2021/12/08 12:41:37;;;;;;;5.00;1.80;;;13.80;71.10;;;;;;4207483;28;20075;-60
2021/12/08 12:44:20;;;;;;;5.75;2.03;;;13.80;71.10;;;;;;4207883;27;20040;-60
2021/12/08 12:47:24;;;;;;;3.88;1.80;;;13.80;70.60;;;;;;4206964;28;20126;-60
2021/12/08 12:49:48;;;;;;;4.10;1.70;;;13.80;70.60;;;;;;4209067;28;20399;-60
2021/12/08 12:52:12;;;;;;;6.53;1.67;;;13.70;71.80;;;;;;4207686;28;20437;-60
2021/12/08 12:54:37;;;;;;;5.35;1.85;;;13.70;71.00;;;;;;4220023;28;20054;-60
2021/12/08 12:57:00;;;;;;;7.70;2.05;;;13.70;71.30;;;;;;4223468;27;20051;-60
2021/12/08 12:59:25;;;;;;;4.85;1.60;;;13.60;71.30;;;;;;4223207;28;20440;-60
2021/12/08 13:02:05;;;;;;;5.28;1.83;;;13.70;71.80;;;;;;4209674;28;20044;-60
2021/12/08 13:04:27;;;;;;;8.00;2.20;;;13.70;71.30;;;;;;4221884;27;20055;-61
2021/12/08 13:06:52;;;;;;;4.72;1.83;;;13.70;71.80;;;;;;4207820;28;20059;-61
2021/12/08 13:09:41;;;;;;;4.55;1.42;;;13.60;71.80;;;;;;4216017;28;20055;-61
2021/12/08 13:12:08;;;;;;;4.85;1.63;;;13.60;71.50;;;;;;4213329;28;20055;-61
2021/12/08 13:14:35;;;;;;;6.93;1.83;;;13.60;72.10;;;;;;4209302;28;20403;-61
2021/12/08 13:17:19;;;;;;;6.07;1.73;;;13.60;72.20;;;;;;4222984;28;20051;-60